AirNav   Bose ProFlight Series 2 Headset
 
 378 users online  

TE92 Wales Air Field
Waco, Texas, USA

GOING TO WACO?


FAA INFORMATION EFFECTIVE 30 JANUARY 2020

Location

FAA Identifier: TE92
Lat/Long: 31-35-39.8300N 097-22-15.1500W
31-35.663833N 097-22.252500W
31.5943972,-97.3708750
(estimated)
Elevation: 640 ft. / 195 m (estimated)
Variation: 06E (2000)
From city: 10 miles N of WACO, TX
Time zone: UTC -6 (UTC -5 during Daylight Saving Time)
Zip code: 76689

Airport Operations

Airport use: Private use. Permission required prior to landing
Activation date: 01/2001
Control tower: no
ARTCC: FORT WORTH CENTER
FSS: FORT WORTH FLIGHT SERVICE STATION
Attendance: UNATNDD
Wind indicator: yes
Segmented circle: no
Beacon: white (unlighted land airport)
Operates sunset to sunrise.

Airport Communications

WX AWOS-3PT at PWG (7 nm SE): 135.525 (254-848-4581)
WX ASOS at ACT (7 nm E): PHONE 254-759-3065
WX AWOS-3 at CNW (15 nm E): 134.225 (254-867-3880)

Nearby radio navigation aids

VOR radial/distance  VOR name  Freq  Var
ACTr223/6.6WACO VORTAC115.3009E

 
NDB name  Hdg/Dist  Freq  Var  ID
ROBINSON286/16.340003EROB .-. --- -...

Airport Services

Runway Information

Runway 17/35

Dimensions: 1200 x 80 ft. / 366 x 24 m
Surface: turf
RUNWAY 17  RUNWAY 35
Traffic pattern: leftleft
Obstructions: 5 ft. fence25 ft. pline

Airport Ownership and Management from official FAA records

Ownership: Privately-owned
Owner: LINDA HAIL
704 COMPTON ROAD
CRAWFORD, TX 76638-2667
Phone 254-848-5583
IND EXE FOR THE ESTATE OF OLLIE WALES
Manager: LINDA HAIL
704 COMPTON ROAD
CRAWFORD, TX 76638-2667
Phone 254-848-5583

Airport Operational Statistics

Aircraft based on the field: 4
Single engine airplanes: 1
Helicopters: 2
Ultralights: 1
    

Additional Remarks

FOR CD CTC FORT WORTH ARTCC AT 817-858-7584.

Instrument Procedures

There are no published instrument procedures at TE92.

Some nearby airports with instrument procedures:

KPWG - Mc Gregor Executive Airport (7 nm SE)
KACT - Waco Regional Airport (7 nm E)
KCNW - TSTC Waco Airport (15 nm E)
KTPL - Draughon-Miller Central Texas Regional Airport (27 nm S)
T15 - Marlin Airport (31 nm SE)
 
Loc | Ops | Rwys | IFR | FBO | Links
Com | Nav | Svcs | Stats | Notes
Area around TE92 (Wales Air Field)
 
Road maps at: MapQuest Bing Google
 
Aerial photo
No photo
 
Sectional chart

 
Airport distance calculator
Flying to Wales Air Field? Find the distance to fly.

From to TE92

Sunrise and sunset
Times for 20-Feb-2020
 Local
(UTC-6)
 Zulu
(UTC)
Morning civil twilight06:4312:43
Sunrise07:0713:07
Sunset18:1900:19
Evening civil twilight18:4400:44

Current date and time
Zulu (UTC)  20-Feb-2020 08:41:58
Local (UTC-6)  20-Feb-2020 02:41:58
 
METAR
KACT 
7nm E 
200815Z AUTO 02007KT 7SM -RA SCT005 BKN011 OVC025 06/05 A3023 RMK AO2 P0004 T00610050 $
KPWG 
8nm S 
200756Z AUTO 01004KT 6SM -RA BR FEW002 06/06 A3024 RMK AO2 SLP241 P0021 T00610056 $
KCNW 
16nm E 
200450Z 03006KT 07SM BKN008 OVC018 07/06 A3025
TAF
KACT 
7nm E 
200545Z 2006/2106 02006KT 3SM SHRA BR OVC008 TEMPO 2006/2010 1SM +SHRA FM201800 01016KT 6SM BR OVC015 FM202200 01016KT P6SM OVC025 FM210000 01015KT P6SM OVC050
NOTAMs
Click for the latest NOTAMs
NOTAMs are issued by the DoD/FAA and will open in a separate window not controlled by AirNav.

 

 
 

Would you like to see your business listed on this page?

 If your business provides an interesting product or service to pilots, flight crews, aircraft, or users of the Wales Air Field, you should consider listing it here.  To start the listing process, click on the button below
 
Add a business
 

Other Pages about Wales Air Field

Update a link
 
Copyright © AirNav, LLC. All rights reserved. Privacy Policy  Contact